Flight Track Log - Related Links

Times and Time Zones

All times are in EDT time to prevent confusion due to time zone crossing. See the VH-AYT flight status page for this flight to view local times or setup timezone preferences in your user account.

Time Position Orientation Groundspeed Altitude Reporting Facility
EDT Latitude Longitude Course Direction KTS MPH feet Rate Location/Type
Wed 11:45:41 PM -26.8328 150.2488 North 5,300  Level Aus ATC (Calculated)
Wed 11:46:29 PM -26.8263 150.2495 111° Southeast 116 133 3,800 -545 Descending Aus ATC (RADAR)
Wed 11:47:09 PM -26.8332 150.2696 111° Southeast 109 125 4,500 1,063 Climbing Aus ATC (RADAR)
Wed 11:47:48 PM -26.8404 150.2895 112° Southeast 105 121 5,200 1,017 Climbing Aus ATC (RADAR)
Wed 11:48:08 PM -26.8444 150.2997 113° Southeast 107 123 5,500 1,036 Climbing Aus ATC (RADAR)
Wed 11:49:38 PM -26.8624 150.3465 113° Southeast 111 128 7,100 1,036 Climbing Aus ATC (RADAR)
Wed 11:49:58 PM -26.8662 150.3572 112° Southeast 111 128 7,400 964 Climbing Aus ATC (RADAR)
Wed 11:50:34 PM -26.8744 150.3774 114° Southeast 123 142 8,000 1,050 Climbing Aus ATC (RADAR)
Wed 11:51:18 PM -26.8856 150.4020 117° Southeast 117 135 8,800 1,017 Climbing Aus ATC (RADAR)
Wed 11:51:33 PM -26.8888 150.4104 113° Southeast 117 135 9,000 327 Climbing Aus ATC (RADAR)
Wed 11:52:13 PM -26.8983 150.4369 112° Southeast 141 162 9,100 67 Climbing Aus ATC (RADAR)
Wed 11:53:03 PM -26.9129 150.4806 110° East 173 199 9,100  Level Aus ATC (RADAR)
Wed 11:54:13 PM -26.9288 150.5412 106° East 171 197 9,100  Level Aus ATC (RADAR)
Wed 11:54:48 PM -26.9399 150.5707 113° Southeast 174 200 9,100  Level Aus ATC (RADAR)
Wed 11:55:08 PM -26.9464 150.5871 114° Southeast 172 198 9,100  Level Aus ATC (RADAR)
Wed 11:55:48 PM -26.9613 150.6194 117° Southeast 172 198 9,100  Level Aus ATC (RADAR)
Wed 11:56:33 PM -26.9783 150.6542 119° Southeast 168 193 9,100  Level Aus ATC (RADAR)
Wed 11:57:08 PM -26.9858 150.6842 106° East 169 194 9,100  Level Aus ATC (RADAR)
Wed 11:57:53 PM -26.9973 150.7220 109° East 168 193 9,100  Level Aus ATC (RADAR)
Wed 11:58:13 PM -27.0028 150.7386 110° East 168 193 9,100  Level Aus ATC (RADAR)
Wed 11:59:18 PM -27.0225 150.7925 112° Southeast 171 197 9,100  Level Aus ATC (RADAR)
Wed 11:59:47 PM -27.0322 150.8175 114° Southeast 172 198 9,100  Level Aus ATC (RADAR)
Thu 12:00:08 AM -27.0386 150.8344 113° Southeast 174 200 9,100  Level Aus ATC (RADAR)
Thu 12:00:47 AM -27.0505 150.8682 111° Southeast 173 199 9,100 -152 Level Aus ATC (RADAR)
Thu 12:01:27 AM -27.0623 150.9017 112° Southeast 173 199 8,900 -80 Descending Aus ATC (RADAR)
Thu 12:02:02 AM -27.0720 150.9316 110° East 172 198 9,000 71 Climbing Aus ATC (RADAR)
Thu 12:02:52 AM -27.0863 150.9743 111° Southeast 174 200 9,000  Level Aus ATC (RADAR)
Thu 12:03:12 AM -27.0924 150.9913 112° Southeast 173 199 9,000 71 Level Aus ATC (RADAR)
Thu 12:04:17 AM -27.1110 151.0456 111° Southeast 171 197 9,100 57 Climbing Aus ATC (RADAR)
Thu 12:04:57 AM -27.1177 151.0810 102° East 170 196 9,100  Level Aus ATC (RADAR)
Thu 12:05:17 AM -27.1226 151.0981 108° East 170 196 9,100  Level Aus ATC (RADAR)
Thu 12:05:47 AM -27.1312 151.1236 111° Southeast 172 198 9,100  Level Aus ATC (RADAR)
Thu 12:06:47 AM -27.1488 151.1744 111° Southeast 172 198 9,100  Level Aus ATC (RADAR)
Thu 12:07:22 AM -27.1592 151.2041 112° Southeast 173 199 9,100  Level Aus ATC (RADAR)
Thu 12:08:12 AM -27.1735 151.2461 111° Southeast 172 198 9,100  Level Aus ATC (RADAR)
Thu 12:08:52 AM -27.1848 151.2804 110° East 173 199 9,100  Level Aus ATC (RADAR)
Thu 12:10:21 AM -27.2105 151.3567 111° Southeast 173 199 9,100  Level Aus ATC (RADAR)
Thu 12:10:41 AM -27.2164 151.3741 111° Southeast 175 201 9,100  Level Aus ATC (RADAR)
Thu 12:11:21 AM -27.2296 151.4092 113° Southeast 182 209 9,100  Level Aus ATC (RADAR)
Thu 12:12:01 AM -27.2410 151.4444 110° East 177 204 9,100  Level Aus ATC (RADAR)
Thu 12:12:41 AM -27.2527 151.4791 111° Southeast 174 200 9,100  Level Aus ATC (RADAR)
Thu 12:13:31 AM -27.2674 151.5227 111° Southeast 175 201 9,100  Level Aus ATC (RADAR)
Thu 12:13:56 AM -27.2749 151.5444 111° Southeast 176 203 9,100  Level Aus ATC (RADAR)
Thu 12:15:23 AM -27.2964 151.6195 108° East 177 204 9,100  Level Aus ATC (RADAR)
Thu 12:15:41 AM -27.3017 151.6371 109° East 177 204 9,100  Level Aus ATC (RADAR)
Thu 12:16:16 AM -27.3116 151.6683 110° East 179 206 9,100  Level Aus ATC (RADAR)
Thu 12:17:06 AM -27.3239 151.7122 108° East 175 201 9,100  Level Aus ATC (RADAR)
Thu 12:17:46 AM -27.3351 151.7469 110° East 174 200 9,100  Level Aus ATC (RADAR)
Thu 12:18:41 AM -27.3502 151.7948 110° East 173 199 9,100  Level Aus ATC (RADAR)
Thu 12:18:56 AM -27.3546 151.8078 111° Southeast 174 200 9,100  Level Aus ATC (RADAR)
Thu 12:20:26 AM -27.3802 151.8856 110° East 176 203 9,100  Level Aus ATC (RADAR)
Thu 12:20:46 AM -27.3862 151.9028 111° Southeast 175 201 9,100  Level Aus ATC (RADAR)
Thu 12:21:21 AM -27.3965 151.9332 111° Southeast 176 203 9,100  Level Aus ATC (RADAR)
Thu 12:22:15 AM -27.4121 151.9809 110° East 177 204 9,100  Level Aus ATC (RADAR)
Thu 12:22:50 AM -27.4216 152.0115 109° East 176 203 9,100  Level Aus ATC (RADAR)
Thu 12:23:40 AM -27.4354 152.0548 110° East 175 201 9,100 -171 Level Aus ATC (RADAR)
Thu 12:24:00 AM -27.4406 152.0723 108° East 175 201 8,900 -436 Descending Aus ATC (RADAR)
Thu 12:25:30 AM -27.4679 152.1538 111° Southeast 181 208 8,300 -436 Descending Aus ATC (RADAR)
Thu 12:25:50 AM -27.4738 152.1720 110° East 181 208 8,100 -600 Descending Aus ATC (RADAR)
Thu 12:26:20 AM -27.4832 152.1982 112° Southeast 177 204 7,800 -533 Descending Aus ATC (RADAR)
Thu 12:27:20 AM -27.5006 152.2498 111° Southeast 171 197 7,300 -505 Descending Aus ATC (RADAR)
Thu 12:27:55 AM -27.5080 152.2811 105° East 175 201 7,000 -494 Descending Aus ATC (RADAR)
Thu 12:28:45 AM -27.5191 152.3245 106° East 170 196 6,600 -465 Descending Aus ATC (RADAR)
Thu 12:30:04 AM -27.5455 152.3900 114° Southeast 168 193 6,000 -545 Descending Aus ATC (RADAR)
Thu 12:30:35 AM -27.5548 152.4149 113° Southeast 169 194 5,600 -720 Descending Aus ATC (RADAR)
Thu 12:30:54 AM -27.5610 152.4316 113° Southeast 171 197 5,400 -556 Descending Aus ATC (RADAR)
Thu 12:31:29 AM -27.5702 152.4609 109° East 168 193 5,100 -494 Descending Aus ATC (RADAR)
Thu 12:32:19 AM -27.5817 152.5032 107° East 166 191 4,700 -467 Descending Aus ATC (RADAR)
Thu 12:32:59 AM -27.5912 152.5363 108° East 162 186 4,400 -467 Descending Aus ATC (RADAR)
Thu 12:33:49 AM -27.6016 152.5773 106° East 161 185 4,000 -429 Descending Aus ATC (RADAR)
Thu 12:34:09 AM -27.6064 152.5934 109° East 159 183 3,900  Descending Aus ATC (RADAR)
Thu 12:35:44 AM -27.6079 152.6683 91° East 153 176 4,000 55 Climbing Aus ATC (RADAR)
Thu 12:35:59 AM -27.6070 152.6804 85° East 153 176 4,000 -545 Level Aus ATC (RADAR)
Thu 12:36:39 AM -27.6039 152.7141 84° East 161 185 3,500 -667 Descending Aus ATC (RADAR)
Thu 12:37:29 AM -27.6011 152.7590 86° East 170 196 3,000 -533 Descending Aus ATC (RADAR)
Thu 12:38:09 AM -27.6003 152.7935 89° East 162 186 2,700 -494 Descending Aus ATC (RADAR)
Thu 12:38:54 AM -27.5997 152.8318 89° East 161 185 2,300 -656 Descending Aus ATC (RADAR)
Thu 12:39:13 AM -27.6003 152.8488 92° East 160 184 2,000 -440 Descending Aus ATC (RADAR)
Thu 12:40:43 AM -27.5876 152.9230 79° East 161 185 1,500 -343 Descending Aus ATC (RADAR)
Thu 12:40:58 AM -27.5819 152.9336 59° Northeast 158 182 1,400 -655 Descending Aus ATC (RADAR)
Thu 12:41:38 AM -27.5674 152.9598 58° Northeast 146 168 900 -800 Descending Aus ATC (RADAR)
Thu 12:42:28 AM -27.5690 152.9899 93° East 122 140 200 -840 Descending Aus ATC (RADAR)

Login

Don't have an account? Register now (free) for customized features, flight alerts, and more!